FNLUFMNA

Guest
Details From FNLU - Luanda 4 De Fevereiro
To FMNA - Arrachart
Flight Number -
Tags Generated
Created
Modified
Stats Distance 2,137 nm / 3,959 km
Max Altitude 0 ft / 0 m
Waypoints 3
Social Downloads 0
Likes 0
Share VATSIM

Download

Looking for another format? Having issues loading an existing format? Contact us
Advertisement - Login to hide

Notes

Generated

Route

FNLU VISMA FMNA

ID Type Via Altitude Latitude Longitude Leg Dist Tot Dist Heading (true) Name
O FNLU APT - 0 ft / 0 m -8.85561˚ 13.22570˚ - 0 nm - LUANDA 4 DE FEVEREIRO
VISMA FIX - 0 ft / 0 m -10.51009˚ 25.19981˚ 715 nm 715 nm 99° / 97° -
O FMNA APT - 0 ft / 0 m -12.34562˚ 49.28606˚ 1421 nm 2137 nm 97° / 92° ARRACHART

Altitude Profile

Advertisement - Login to hide

Weather


0- 5 10 15 20 25 30 35+ Temperature / ° C

Clouds and Precipitation
Forecast for 2017-12-12 18:00 UTC. Updated an hour ago

Ground ~20,000 ft ~40,000 ft Winds

FNLU

Details ICAO FNLU (LAD)
Name LUANDA 4 DE FEVEREIRO
Region Angola
Timezone Africa/Luanda (UTC+1.0)
Stats Elevation 243 ft / 74 m (AMSL)
Location -8.858377° 13.231178°
Runways 2
Magnetic Variation 3.484° W

METAR

FNLU 121400Z 27006KT 9999 FEW022 BKN080 29/23 Q1009 NOSIG

Decode

TAF

TAF FNLU 121100Z 1212/1318 28010KT 9999 SCT023 BECMG 1221/1224 VRB03KT FEW023 TEMPO 1203/1210 9000 BKN050 BECMG 1312/1314 27010KT 9999 SCT022

Decode

Departure Runways

ID Width Length Bearing (true) Bearing (mag) Surface Threshold Offset Overrun Length
05 148 ft / 45 m 12,153 ft / 3,704 m 46.63° 50.11° Asphalt 0 ft / 0 m 0 ft / 0 m
07 197 ft / 60 m 8,176 ft / 2,492 m 67.40° 70.88° Asphalt 0 ft / 0 m 176 ft / 54 m
23 148 ft / 45 m 12,153 ft / 3,704 m 226.62° 230.10° Asphalt 500 ft / 152 m 0 ft / 0 m
25 197 ft / 60 m 8,176 ft / 2,492 m 247.40° 250.88° Asphalt 0 ft / 0 m 0 ft / 0 m

FMNA

Details ICAO FMNA (DIE)
Name ARRACHART
Region Comoros, Mayotte, Réunion and Madagascar
Timezone Indian/Antananarivo (UTC+3.0)
Stats Elevation 374 ft / 114 m (AMSL)
Location -12.349400° 49.291747°
Runways 1
Magnetic Variation 8.867° W

METAR

FMNA 121400Z 08008KT 9999 VCTS SCT020CB 28/23 Q1011

Decode

TAF

Not found

Destination Runways

ID Width Length Bearing (true) Bearing (mag) Surface Threshold Offset Overrun Length
13 98 ft / 30 m 4,907 ft / 1,496 m 124.22° 133.09° Asphalt 0 ft / 0 m 100 ft / 30 m
31 98 ft / 30 m 4,907 ft / 1,496 m 304.22° 313.09° Asphalt 0 ft / 0 m 100 ft / 30 m